createdAt,value
2022-12-18T00:02:57.684Z,45.50
2022-12-18T00:06:00.799Z,58.10
2022-12-18T00:09:04.714Z,48.70
2022-12-18T00:15:18.625Z,44.60
2022-12-18T00:18:21.507Z,52.20
2022-12-18T00:21:24.354Z,25.90
2022-12-18T00:24:27.513Z,59.60
2022-12-18T00:27:30.383Z,22.90
2022-12-18T00:30:33.295Z,23.10
2022-12-18T00:33:37.436Z,57.20
2022-12-18T00:36:42.113Z,39.90
2022-12-18T00:39:44.928Z,49.10
2022-12-18T00:42:56.873Z,39.20
2022-12-18T00:45:59.822Z,51.50
2022-12-18T00:49:04.073Z,48.40
2022-12-18T00:52:06.946Z,64.40
2022-12-18T00:55:10.374Z,40.30
2022-12-18T00:58:15.043Z,24.20
2022-12-18T01:01:18.047Z,10.80
2022-12-18T01:04:21.003Z,23.00
2022-12-18T01:07:23.851Z,44.20
2022-12-18T01:10:27.139Z,53.50
2022-12-18T01:13:29.908Z,43.30
2022-12-18T01:16:32.816Z,55.40
2022-12-18T01:19:35.749Z,48.90
2022-12-18T01:22:38.804Z,52.70
2022-12-18T01:25:41.725Z,42.30
2022-12-18T01:28:45.207Z,48.70
2022-12-18T01:31:48.081Z,48.30
2022-12-18T01:34:51.031Z,43.20
2022-12-18T01:37:57.087Z,42.30
2022-12-18T01:41:01.170Z,42.20
2022-12-18T01:44:42.739Z,31.60
2022-12-18T01:47:57.316Z,32.00
2022-12-18T01:51:01.326Z,28.50
2022-12-18T01:54:04.301Z,36.20
2022-12-18T01:57:07.236Z,36.20
2022-12-18T02:00:22.271Z,11.40
2022-12-18T02:03:25.220Z,47.80
2022-12-18T02:06:41.172Z,55.30
2022-12-18T02:09:59.572Z,47.50
2022-12-18T02:13:43.321Z,59.30
2022-12-18T02:16:58.713Z,49.30
2022-12-18T02:20:25.867Z,38.20
2022-12-18T02:23:47.183Z,39.70
2022-12-18T02:26:52.703Z,33.90
2022-12-18T02:29:59.164Z,37.50
2022-12-18T02:33:05.033Z,34.70
2022-12-18T02:36:11.965Z,33.20
2022-12-18T02:39:17.574Z,40.90
2022-12-18T02:42:20.824Z,44.70
2022-12-18T02:45:23.817Z,44.40
2022-12-18T02:48:33.877Z,47.20
2022-12-18T02:52:02.629Z,39.50
2022-12-18T02:55:20.283Z,42.40
2022-12-18T02:58:26.061Z,37.00
2022-12-18T03:01:44.275Z,37.00
2022-12-18T03:05:19.419Z,36.20
2022-12-18T03:08:31.220Z,33.70
2022-12-18T03:11:57.964Z,30.00
2022-12-18T03:15:17.676Z,37.50
2022-12-18T03:18:30.734Z,36.20
2022-12-18T03:21:40.007Z,36.00
2022-12-18T03:24:43.889Z,36.40
2022-12-18T03:27:52.356Z,39.20
2022-12-18T03:31:00.254Z,40.40
2022-12-18T03:34:10.491Z,27.00
2022-12-18T03:37:13.434Z,29.20
2022-12-18T03:40:16.651Z,29.60
2022-12-18T03:43:57.243Z,30.70
2022-12-18T03:47:09.142Z,26.20
2022-12-18T03:50:21.303Z,37.40
2022-12-18T03:53:32.952Z,32.30
2022-12-18T03:56:43.276Z,30.90
2022-12-18T03:59:50.476Z,32.50
2022-12-18T04:02:56.388Z,39.70
2022-12-18T04:06:01.972Z,30.70
2022-12-18T04:09:06.002Z,31.50
2022-12-18T04:12:09.958Z,30.90
2022-12-18T04:15:14.072Z,34.00
2022-12-18T04:18:17.207Z,34.10
2022-12-18T04:21:20.488Z,27.10
2022-12-18T04:24:23.360Z,26.20
2022-12-18T04:27:26.186Z,32.50
2022-12-18T04:30:29.035Z,26.40
2022-12-18T04:33:31.928Z,26.20
2022-12-18T04:36:34.792Z,27.70
2022-12-18T04:39:37.791Z,34.90
2022-12-18T04:42:41.691Z,36.70
2022-12-18T04:45:44.584Z,39.80
2022-12-18T04:48:48.119Z,40.40
2022-12-18T04:51:50.945Z,34.50
2022-12-18T04:54:53.869Z,20.20
2022-12-18T04:57:56.696Z,13.70
2022-12-18T05:00:59.517Z,25.60
2022-12-18T05:04:03.281Z,31.80
2022-12-18T05:07:06.099Z,29.40
2022-12-18T05:10:09.508Z,26.80
2022-12-18T05:13:14.044Z,17.70
2022-12-18T05:16:17.162Z,25.00
2022-12-18T05:19:20.175Z,24.10
2022-12-18T05:22:23.016Z,29.10
2022-12-18T05:25:25.968Z,28.80
2022-12-18T05:28:31.171Z,27.00
2022-12-18T05:31:39.495Z,33.10
2022-12-18T05:34:42.775Z,32.40
2022-12-18T05:37:45.790Z,36.10
2022-12-18T05:40:49.757Z,31.10
2022-12-18T05:43:52.543Z,30.40
2022-12-18T05:46:55.454Z,28.30
2022-12-18T05:49:58.414Z,29.60
2022-12-18T05:53:01.362Z,27.40
2022-12-18T05:56:06.147Z,17.10
2022-12-18T05:59:08.890Z,26.30
2022-12-18T06:02:11.864Z,31.60
2022-12-18T06:05:15.166Z,37.00
2022-12-18T06:08:18.231Z,31.40
2022-12-18T06:11:24.633Z,29.80
2022-12-18T06:14:28.847Z,23.50
2022-12-18T06:17:33.190Z,31.70
2022-12-18T06:20:37.650Z,35.90
2022-12-18T06:23:40.932Z,25.40
2022-12-18T06:26:44.095Z,10.30
2022-12-18T06:29:47.051Z,21.60
2022-12-18T06:32:56.311Z,29.70
2022-12-18T06:36:13.514Z,22.70
2022-12-18T06:39:16.314Z,24.70
2022-12-18T06:42:19.355Z,26.10
2022-12-18T06:45:22.460Z,24.90
2022-12-18T06:48:25.440Z,29.00
2022-12-18T06:51:28.320Z,27.90
2022-12-18T06:54:31.139Z,43.90
2022-12-18T06:57:33.937Z,31.60
2022-12-18T07:00:36.922Z,18.90
2022-12-18T07:03:41.763Z,32.50
2022-12-18T07:06:44.873Z,31.60
2022-12-18T07:09:48.049Z,13.40
2022-12-18T07:12:50.899Z,35.80
2022-12-18T07:15:53.891Z,36.70
2022-12-18T07:18:57.302Z,37.70
2022-12-18T07:22:00.144Z,24.90
2022-12-18T07:25:03.150Z,30.90
2022-12-18T07:28:06.044Z,28.10
2022-12-18T07:31:13.091Z,28.00
2022-12-18T07:34:16.375Z,40.00
2022-12-18T07:37:19.327Z,38.50
2022-12-18T07:40:22.161Z,35.90
2022-12-18T07:43:25.006Z,34.60
2022-12-18T07:46:27.777Z,35.00
2022-12-18T07:49:30.630Z,28.50
2022-12-18T07:52:33.476Z,32.10
2022-12-18T07:55:59.931Z,31.50
2022-12-18T07:59:00.719Z,26.50
2022-12-18T08:02:04.172Z,34.60
2022-12-18T08:05:07.286Z,38.30
2022-12-18T08:08:10.272Z,37.20
2022-12-18T08:11:13.255Z,28.20
2022-12-18T08:14:16.191Z,43.20
2022-12-18T08:17:20.590Z,41.70
2022-12-18T08:20:23.412Z,44.00
2022-12-18T08:23:28.722Z,45.10
2022-12-18T08:26:32.401Z,40.70
2022-12-18T08:29:35.387Z,42.70
2022-12-18T08:32:38.195Z,44.90
2022-12-18T08:35:45.826Z,45.10
2022-12-18T08:38:49.006Z,52.20
2022-12-18T08:42:10.608Z,37.50
2022-12-18T08:45:13.540Z,43.60
2022-12-18T08:48:21.865Z,50.40
2022-12-18T08:51:25.219Z,40.80
2022-12-18T08:54:28.125Z,47.20
2022-12-18T08:57:31.008Z,38.40
2022-12-18T09:00:33.781Z,51.30
2022-12-18T09:03:36.697Z,45.30
2022-12-18T09:06:39.577Z,52.30
2022-12-18T09:09:42.455Z,45.50
2022-12-18T09:12:45.257Z,37.50
2022-12-18T09:15:53.088Z,31.10
2022-12-18T09:19:00.619Z,35.70
2022-12-18T09:22:03.448Z,36.10
2022-12-18T09:25:09.016Z,48.00
2022-12-18T09:28:20.275Z,42.60
2022-12-18T09:31:25.422Z,34.10
2022-12-18T09:34:28.321Z,40.20
2022-12-18T09:37:31.134Z,46.30
2022-12-18T09:40:40.952Z,51.20
2022-12-18T09:43:58.556Z,60.20
2022-12-18T09:47:17.493Z,67.80
2022-12-18T09:50:26.566Z,55.10
2022-12-18T09:53:34.546Z,56.20
2022-12-18T09:56:41.962Z,55.80
2022-12-18T09:59:50.997Z,52.50
2022-12-18T10:03:02.629Z,49.10
2022-12-18T10:06:16.479Z,49.40
2022-12-18T10:09:19.228Z,41.40
2022-12-18T10:12:36.135Z,45.00
2022-12-18T10:15:51.921Z,42.50
2022-12-18T10:19:19.606Z,35.70
2022-12-18T10:22:44.181Z,49.00
2022-12-18T10:29:05.295Z,45.00
2022-12-18T10:32:15.343Z,45.10
2022-12-18T10:35:25.276Z,46.10
2022-12-18T10:38:31.448Z,48.60
2022-12-18T10:41:34.555Z,50.20
2022-12-18T10:44:37.502Z,48.40
2022-12-18T10:47:49.504Z,45.80
2022-12-18T10:54:23.595Z,45.10
2022-12-18T10:57:37.870Z,48.20
2022-12-18T11:00:40.761Z,50.10
2022-12-18T11:03:46.052Z,50.90
2022-12-18T11:07:07.201Z,48.30
2022-12-18T11:10:19.131Z,46.40
2022-12-18T11:13:25.041Z,49.60
2022-12-18T11:16:30.097Z,39.00
2022-12-18T11:19:38.296Z,45.80
2022-12-18T11:22:41.262Z,44.60
2022-12-18T11:25:53.596Z,47.30
2022-12-18T11:29:12.038Z,43.20
2022-12-18T11:32:46.218Z,43.90
2022-12-18T11:35:53.112Z,45.10
2022-12-18T11:38:57.389Z,45.30
2022-12-18T11:42:13.640Z,44.10
2022-12-18T11:45:28.014Z,45.60
2022-12-18T11:48:37.826Z,46.70
2022-12-18T11:51:57.385Z,46.30
2022-12-18T11:55:09.722Z,49.60
2022-12-18T11:58:22.563Z,46.70
2022-12-18T12:01:52.201Z,53.30
2022-12-18T12:05:15.205Z,47.70
2022-12-18T12:08:24.289Z,43.40
2022-12-18T12:11:44.702Z,48.60
2022-12-18T12:15:04.504Z,46.50
2022-12-18T12:18:31.260Z,49.80
2022-12-18T12:21:40.484Z,53.70
2022-12-18T12:24:49.578Z,52.10
2022-12-18T12:28:04.017Z,51.90
2022-12-18T12:31:06.888Z,53.10
2022-12-18T12:34:57.872Z,49.50
2022-12-18T12:38:17.141Z,56.60
2022-12-18T12:41:46.826Z,49.70
2022-12-18T12:44:56.460Z,53.40
2022-12-18T12:48:02.719Z,44.60
2022-12-18T12:51:14.157Z,47.70
2022-12-18T12:54:20.978Z,49.10
2022-12-18T12:57:28.041Z,51.30
2022-12-18T13:00:50.779Z,43.50
2022-12-18T13:03:58.524Z,40.80
2022-12-18T13:10:23.837Z,45.90
2022-12-18T13:13:50.576Z,41.10
2022-12-18T13:17:23.087Z,44.70
2022-12-18T13:20:35.373Z,48.50
2022-12-18T13:23:42.181Z,49.10
2022-12-18T13:26:45.486Z,55.30
2022-12-18T13:29:48.687Z,45.40
2022-12-18T13:33:19.131Z,53.80
2022-12-18T13:36:29.864Z,54.10
2022-12-18T13:39:35.925Z,59.30
2022-12-18T13:43:01.263Z,55.80
2022-12-18T13:46:06.879Z,49.30
2022-12-18T13:49:22.657Z,42.20
2022-12-18T13:52:38.398Z,49.30
2022-12-18T13:55:47.806Z,49.30
2022-12-18T13:59:17.428Z,49.00
2022-12-18T14:02:29.930Z,47.70
2022-12-18T14:05:39.509Z,57.60
2022-12-18T14:08:47.721Z,54.30
2022-12-18T14:11:52.185Z,49.50
2022-12-18T14:14:55.491Z,57.50
2022-12-18T14:18:17.326Z,56.50
2022-12-18T14:21:33.493Z,54.30
2022-12-18T14:24:36.567Z,57.00
2022-12-18T14:27:44.903Z,59.40
2022-12-18T14:30:47.955Z,66.90
2022-12-18T14:33:51.473Z,60.30
2022-12-18T14:36:56.359Z,53.10
2022-12-18T14:40:10.151Z,53.60
2022-12-18T14:43:14.774Z,46.90
2022-12-18T14:46:31.437Z,51.20
2022-12-18T14:49:35.910Z,52.50
2022-12-18T14:52:39.827Z,65.80
2022-12-18T14:55:48.517Z,56.10
2022-12-18T14:58:55.361Z,68.20
2022-12-18T15:01:58.418Z,63.60
2022-12-18T15:05:12.627Z,71.90
2022-12-18T15:08:38.024Z,79.40
2022-12-18T15:11:40.944Z,101.60
2022-12-18T15:14:43.808Z,104.40
2022-12-18T15:17:46.636Z,117.30
2022-12-18T15:20:56.964Z,105.80
2022-12-18T15:23:59.867Z,101.90
2022-12-18T15:27:03.136Z,96.90
2022-12-18T15:30:09.083Z,90.10
2022-12-18T15:33:27.813Z,68.30
2022-12-18T15:36:31.447Z,83.70
2022-12-18T15:39:34.477Z,83.20
2022-12-18T15:42:56.091Z,79.40
2022-12-18T15:45:59.064Z,71.50
2022-12-18T15:49:03.853Z,72.00
2022-12-18T15:52:07.238Z,81.60
2022-12-18T15:55:34.001Z,70.10
2022-12-18T15:58:36.857Z,68.60
2022-12-18T16:01:42.713Z,62.80
2022-12-18T16:04:46.933Z,67.70
2022-12-18T16:07:49.872Z,58.30
2022-12-18T16:10:52.837Z,67.80
2022-12-18T16:13:55.675Z,101.00
2022-12-18T16:17:01.491Z,160.90
2022-12-18T16:20:04.599Z,112.40
2022-12-18T16:23:07.907Z,108.20
2022-12-18T16:26:10.743Z,109.70
2022-12-18T16:29:13.555Z,95.70
2022-12-18T16:32:21.378Z,90.20
2022-12-18T16:35:27.310Z,126.50
2022-12-18T16:38:30.154Z,126.20
2022-12-18T16:41:33.724Z,119.30
2022-12-18T16:44:36.842Z,110.30
2022-12-18T16:47:40.623Z,104.50
2022-12-18T16:50:43.555Z,98.30
2022-12-18T16:53:46.424Z,166.80
2022-12-18T16:56:51.981Z,157.30
2022-12-18T16:59:56.804Z,153.20
2022-12-18T17:03:02.973Z,154.70
2022-12-18T17:06:06.944Z,173.70
2022-12-18T17:09:16.902Z,159.70
2022-12-18T17:12:20.045Z,125.30
2022-12-18T17:15:22.902Z,171.60
2022-12-18T17:18:27.113Z,137.40
2022-12-18T17:21:30.388Z,96.30
2022-12-18T17:24:35.299Z,104.30
2022-12-18T17:27:38.739Z,89.30
2022-12-18T17:30:41.675Z,101.20
2022-12-18T17:33:44.803Z,87.00
2022-12-18T17:36:47.715Z,85.70
2022-12-18T17:39:50.552Z,94.90
2022-12-18T17:42:53.791Z,101.30
2022-12-18T17:45:57.304Z,103.90
2022-12-18T17:49:02.599Z,92.10
2022-12-18T17:52:05.577Z,97.70
2022-12-18T17:55:09.139Z,89.30
2022-12-18T17:58:11.953Z,64.00
2022-12-18T18:01:16.777Z,70.70
2022-12-18T18:04:19.747Z,74.90
2022-12-18T18:07:22.851Z,64.60
2022-12-18T18:10:25.874Z,78.50
2022-12-18T18:13:47.416Z,77.30
2022-12-18T18:16:52.260Z,65.90
2022-12-18T18:19:55.150Z,51.30
2022-12-18T18:22:58.089Z,63.30
2022-12-18T18:26:05.572Z,54.00
2022-12-18T18:29:12.348Z,58.70
2022-12-18T18:32:15.526Z,82.80
2022-12-18T18:35:45.147Z,47.70
2022-12-18T18:38:45.369Z,56.30
2022-12-18T18:41:51.839Z,51.60
2022-12-18T18:44:54.596Z,36.60
2022-12-18T18:47:58.970Z,46.90
2022-12-18T18:51:14.686Z,33.80
2022-12-18T18:54:25.652Z,32.90
2022-12-18T18:57:30.436Z,40.50
2022-12-18T19:00:33.818Z,39.00
2022-12-18T19:03:38.090Z,37.00
2022-12-18T19:06:41.678Z,41.40
2022-12-18T19:09:45.466Z,45.30
2022-12-18T19:13:07.221Z,47.20
2022-12-18T19:16:10.349Z,28.90
2022-12-18T19:19:13.932Z,32.70
2022-12-18T19:22:16.974Z,36.80
2022-12-18T19:25:19.757Z,31.20
2022-12-18T19:28:26.359Z,25.00
2022-12-18T19:31:34.746Z,28.90
2022-12-18T19:34:39.079Z,33.30
2022-12-18T19:37:42.140Z,25.30
2022-12-18T19:40:45.263Z,27.10
2022-12-18T19:43:49.237Z,25.70
2022-12-18T19:46:52.230Z,31.80
2022-12-18T19:49:55.175Z,39.50
2022-12-18T19:52:58.536Z,36.70
2022-12-18T19:56:12.893Z,42.90
2022-12-18T19:59:15.865Z,38.90
2022-12-18T20:02:20.231Z,42.50
2022-12-18T20:05:25.433Z,30.50
2022-12-18T20:08:28.196Z,48.40
2022-12-18T20:11:33.640Z,50.70
2022-12-18T20:14:41.521Z,58.80
2022-12-18T20:17:44.311Z,60.50
2022-12-18T20:20:48.121Z,59.90
2022-12-18T20:23:54.640Z,62.20
2022-12-18T20:26:57.616Z,54.20
2022-12-18T20:30:00.784Z,46.00
2022-12-18T20:33:03.910Z,74.30
2022-12-18T20:36:12.495Z,73.00
2022-12-18T20:39:16.544Z,66.10
2022-12-18T20:42:19.634Z,37.30
2022-12-18T20:45:22.621Z,42.20
2022-12-18T20:48:26.822Z,37.30
2022-12-18T20:51:30.717Z,47.20
2022-12-18T20:54:33.867Z,41.30
2022-12-18T20:57:36.727Z,52.90
2022-12-18T21:00:41.238Z,60.10
2022-12-18T21:03:46.476Z,28.40
2022-12-18T21:06:54.262Z,30.00
2022-12-18T21:10:05.691Z,10.00
2022-12-18T21:13:08.717Z,40.50
2022-12-18T21:16:12.985Z,53.90
2022-12-18T21:19:20.430Z,35.10
2022-12-18T21:22:23.916Z,57.70
2022-12-18T21:25:27.543Z,46.60
2022-12-18T21:28:30.341Z,44.00
2022-12-18T21:31:38.230Z,20.40
2022-12-18T21:34:46.008Z,16.50
2022-12-18T21:37:50.841Z,33.60
2022-12-18T21:40:53.726Z,27.80
2022-12-18T21:44:07.969Z,23.10
2022-12-18T21:47:21.570Z,28.40
2022-12-18T21:50:26.184Z,15.80
2022-12-18T21:53:29.002Z,21.30
2022-12-18T21:57:01.037Z,34.50
2022-12-18T22:00:05.830Z,13.10
2022-12-18T22:03:18.216Z,22.80
2022-12-18T22:06:22.529Z,39.40
2022-12-18T22:09:26.065Z,40.50
2022-12-18T22:12:43.463Z,33.10
2022-12-18T22:15:47.555Z,27.30
2022-12-18T22:18:50.435Z,30.40
2022-12-18T22:21:54.505Z,21.50
2022-12-18T22:24:57.440Z,23.00
2022-12-18T22:28:18.795Z,29.50
2022-12-18T22:31:21.636Z,39.70
2022-12-18T22:34:24.520Z,36.60
2022-12-18T22:37:27.491Z,32.00
2022-12-18T22:40:30.277Z,31.70
2022-12-18T22:43:33.511Z,26.60
2022-12-18T22:46:44.056Z,22.20
2022-12-18T22:49:48.202Z,33.80
2022-12-18T22:52:50.993Z,32.70
2022-12-18T22:56:00.760Z,40.90
2022-12-18T22:59:04.057Z,40.80
2022-12-18T23:02:06.974Z,48.50
2022-12-18T23:05:10.031Z,59.00
2022-12-18T23:08:12.829Z,47.60
2022-12-18T23:11:16.768Z,37.70
2022-12-18T23:14:21.840Z,39.40
2022-12-18T23:17:25.700Z,69.40
2022-12-18T23:20:28.863Z,78.80
2022-12-18T23:23:34.119Z,63.30
2022-12-18T23:26:37.162Z,70.60
2022-12-18T23:29:40.658Z,102.70
2022-12-18T23:32:43.554Z,63.50
2022-12-18T23:35:46.395Z,53.40
2022-12-18T23:38:54.572Z,51.60
2022-12-18T23:41:58.711Z,52.80
2022-12-18T23:45:03.925Z,56.30
2022-12-18T23:48:12.331Z,58.30
2022-12-18T23:51:16.712Z,50.20
2022-12-18T23:54:30.876Z,38.50
2022-12-18T23:57:36.507Z,36.80
